Time;durP1;ratioP1;P1;durP2;ratioP2;P2;SDS_P1;SDS_P2;PMS_P1;PMS_P2;Temp;Humidity;BMP_temperature;BMP_pressure;BME280_temperature;BME280_humidity;BME280_pressure;Samples;Min_cycle;Max_cycle;Signal;HPM_P1;HPM_P2
2021/11/14 00:01:22;;;;;;;;;;;10.30;99.90;;;;;;5093694;28;19955;-58
2021/11/14 00:03:48;;;;;;;;;;;10.30;99.90;;;;;;5093558;28;19946;-57
2021/11/14 00:06:14;;;;;;;;;;;10.30;99.90;;;;;;5093693;28;20362;-57
2021/11/14 00:08:40;;;;;;;;;;;10.30;99.90;;;;;;5093686;28;20007;-57
2021/11/14 00:11:09;;;;;;;;;;;10.30;99.90;;;;;;5093430;28;19959;-58
2021/11/14 00:13:35;;;;;;;;;;;10.20;99.90;;;;;;5093377;28;19920;-58
2021/11/14 00:16:01;;;;;;;;;;;10.20;99.90;;;;;;5093251;28;19924;-58
2021/11/14 00:18:27;;;;;;;;;;;10.20;99.90;;;;;;5075500;28;19921;-57
2021/11/14 00:20:52;;;;;;;;;;;10.20;99.90;;;;;;5093475;28;20008;-57
2021/11/14 00:23:18;;;;;;;;;;;10.20;99.90;;;;;;5093462;28;20290;-57
2021/11/14 00:25:43;;;;;;;;;;;10.20;99.90;;;;;;5093548;28;20084;-57
2021/11/14 00:28:09;;;;;;;;;;;10.20;99.90;;;;;;5093164;28;19920;-57
2021/11/14 00:30:35;;;;;;;;;;;10.20;99.90;;;;;;5092990;28;19930;-57
2021/11/14 00:33:01;;;;;;;;;;;10.20;99.90;;;;;;5093003;28;19967;-57
2021/11/14 00:35:27;;;;;;;;;;;10.30;99.90;;;;;;5093149;28;19967;-57
2021/11/14 00:37:53;;;;;;;;;;;10.20;99.90;;;;;;5093041;28;20012;-57
2021/11/14 00:40:20;;;;;;;;;;;10.20;99.90;;;;;;5092897;28;19920;-57
2021/11/14 00:42:46;;;;;;;;;;;10.30;99.90;;;;;;5092855;28;19924;-58
2021/11/14 00:45:11;;;;;;;;;;;10.20;99.90;;;;;;5092871;28;19965;-57
2021/11/14 00:47:39;;;;;;;;;;;10.20;99.90;;;;;;5092848;28;19924;-57
2021/11/14 00:50:07;;;;;;;;;;;10.20;99.90;;;;;;5092981;28;19974;-57
2021/11/14 00:52:33;;;;;;;;;;;10.20;99.90;;;;;;5092801;28;19924;-57
2021/11/14 00:54:58;;;;;;;;;;;10.20;99.90;;;;;;5092619;28;20266;-57
2021/11/14 00:57:24;;;;;;;;;;;10.20;99.90;;;;;;5092267;28;19920;-57
2021/11/14 00:59:49;;;;;;;;;;;10.20;99.90;;;;;;5092592;28;19927;-57
2021/11/14 01:02:15;;;;;;;;;;;10.20;99.90;;;;;;5092460;28;19927;-58
2021/11/14 01:04:40;;;;;;;;;;;10.20;99.90;;;;;;5074368;28;19928;-57
2021/11/14 01:07:06;;;;;;;;;;;10.10;99.90;;;;;;5092665;28;19959;-58
2021/11/14 01:09:32;;;;;;;;;;;10.20;99.90;;;;;;5092567;28;19927;-58
2021/11/14 01:11:57;;;;;;;;;;;10.30;99.90;;;;;;5092563;28;20386;-57
2021/11/14 01:14:23;;;;;;;;;;;10.20;99.90;;;;;;5092692;28;19932;-57
2021/11/14 01:16:48;;;;;;;;;;;10.10;99.90;;;;;;5092357;28;19924;-58
2021/11/14 01:19:14;;;;;;;;;;;10.10;99.90;;;;;;5092522;28;20370;-58
2021/11/14 01:21:45;;;;;;;;;;;10.20;99.90;;;;;;5092451;28;19982;-57
2021/11/14 01:24:11;;;;;;;;;;;10.10;99.90;;;;;;5092802;28;19924;-58
2021/11/14 01:26:36;;;;;;;;;;;10.10;99.90;;;;;;5074855;28;19961;-57
2021/11/14 01:29:02;;;;;;;;;;;10.10;99.90;;;;;;5091966;28;19962;-57
2021/11/14 01:31:28;;;;;;;;;;;10.20;99.90;;;;;;5091975;28;20381;-57
2021/11/14 01:33:53;;;;;;;;;;;10.10;99.90;;;;;;5092093;28;19920;-58
2021/11/14 01:36:19;;;;;;;;;;;10.10;99.90;;;;;;5092202;28;19924;-57
2021/11/14 01:38:45;;;;;;;;;;;10.10;99.90;;;;;;5092169;28;19920;-57
2021/11/14 01:41:11;;;;;;;;;;;10.10;99.90;;;;;;5092137;28;20391;-58
2021/11/14 01:43:40;;;;;;;;;;;10.10;99.90;;;;;;5092094;28;19924;-58
2021/11/14 01:46:06;;;;;;;;;;;10.20;99.90;;;;;;5092031;28;19921;-58
2021/11/14 01:48:33;;;;;;;;;;;10.20;99.90;;;;;;5092153;28;19924;-57
2021/11/14 01:50:58;;;;;;;;;;;10.20;99.90;;;;;;5092110;28;19920;-58
2021/11/14 01:53:25;;;;;;;;;;;10.20;99.90;;;;;;5092131;28;19926;-57
2021/11/14 01:55:51;;;;;;;;;;;10.20;99.90;;;;;;5091930;28;20387;-58
2021/11/14 01:58:17;;;;;;;;;;;10.20;99.90;;;;;;5091894;28;20007;-57
2021/11/14 02:00:45;;;;;;;;;;;10.20;99.90;;;;;;5092124;28;19962;-57
2021/11/14 02:03:10;;;;;;;;;;;10.20;99.90;;;;;;5091945;28;19982;-57
2021/11/14 02:05:36;;;;;;;;;;;10.10;99.90;;;;;;5091985;28;20357;-58
2021/11/14 02:08:04;;;;;;;;;;;10.10;99.90;;;;;;5091951;28;19920;-58
2021/11/14 02:10:31;;;;;;;;;;;10.10;99.90;;;;;;5076241;28;19928;-58
2021/11/14 02:12:57;;;;;;;;;;;10.10;99.90;;;;;;5095556;28;19967;-57
2021/11/14 02:15:23;;;;;;;;;;;10.10;99.90;;;;;;5077823;28;19924;-58
2021/11/14 02:17:48;;;;;;;;;;;10.10;99.90;;;;;;5095937;28;20254;-58
2021/11/14 02:20:15;;;;;;;;;;;10.10;99.90;;;;;;5095668;28;19920;-58
2021/11/14 02:22:40;;;;;;;;;;;10.10;99.90;;;;;;5095562;28;19964;-58
2021/11/14 02:25:07;;;;;;;;;;;10.00;99.90;;;;;;5095488;28;20367;-58
2021/11/14 02:27:33;;;;;;;;;;;10.00;99.90;;;;;;5095428;28;19977;-57
2021/11/14 02:29:59;;;;;;;;;;;10.00;99.90;;;;;;5095694;28;20384;-57
2021/11/14 02:32:24;;;;;;;;;;;9.90;99.90;;;;;;5095559;28;19920;-57
2021/11/14 02:34:50;;;;;;;;;;;9.90;99.90;;;;;;5095368;28;19927;-58
2021/11/14 02:37:16;;;;;;;;;;;9.90;99.90;;;;;;5095275;28;19927;-57
2021/11/14 02:39:41;;;;;;;;;;;9.80;99.90;;;;;;5095354;28;19920;-58
2021/11/14 02:42:07;;;;;;;;;;;9.80;99.90;;;;;;5095263;28;19973;-57
2021/11/14 02:44:32;;;;;;;;;;;9.80;99.90;;;;;;5095304;28;19920;-58
2021/11/14 02:46:58;;;;;;;;;;;9.80;99.90;;;;;;5095338;28;19927;-58
2021/11/14 02:49:25;;;;;;;;;;;9.80;99.90;;;;;;5095209;28;20331;-57
2021/11/14 02:51:50;;;;;;;;;;;9.80;99.90;;;;;;5095028;28;19920;-57
2021/11/14 02:54:16;;;;;;;;;;;9.80;99.90;;;;;;5094994;28;20301;-58
2021/11/14 02:56:42;;;;;;;;;;;9.80;99.90;;;;;;5094809;28;20364;-57
2021/11/14 02:59:07;;;;;;;;;;;9.80;99.90;;;;;;5095020;28;20002;-57
2021/11/14 03:01:35;;;;;;;;;;;9.80;99.90;;;;;;5095028;28;19920;-57
2021/11/14 03:04:01;;;;;;;;;;;9.80;99.90;;;;;;5076923;28;19971;-58
2021/11/14 03:06:27;;;;;;;;;;;9.80;99.90;;;;;;5094826;28;19955;-58
2021/11/14 03:08:53;;;;;;;;;;;9.80;99.90;;;;;;5094676;28;19927;-58
2021/11/14 03:11:19;;;;;;;;;;;9.70;99.90;;;;;;5076288;28;20293;-58
2021/11/14 03:13:45;;;;;;;;;;;9.70;99.90;;;;;;5076823;28;19924;-57
2021/11/14 03:16:13;;;;;;;;;;;9.70;99.90;;;;;;5094831;28;19928;-57
2021/11/14 03:18:38;;;;;;;;;;;9.70;99.90;;;;;;5095108;28;20391;-57
2021/11/14 03:21:04;;;;;;;;;;;9.70;99.90;;;;;;5094260;28;20493;-57
2021/11/14 03:23:30;;;;;;;;;;;9.70;99.90;;;;;;5094431;28;19926;-58
2021/11/14 03:25:56;;;;;;;;;;;9.70;99.90;;;;;;5094308;28;20007;-57
2021/11/14 03:28:22;;;;;;;;;;;9.70;99.90;;;;;;5094531;28;19920;-57
2021/11/14 03:30:52;;;;;;;;;;;9.70;99.90;;;;;;5094191;28;19981;-57
2021/11/14 03:33:18;;;;;;;;;;;9.70;99.90;;;;;;5094356;28;19924;-57
2021/11/14 03:35:49;;;;;;;;;;;9.60;99.90;;;;;;5075945;28;19971;-57
2021/11/14 03:38:15;;;;;;;;;;;9.70;99.90;;;;;;5094360;28;19924;-57
2021/11/14 03:40:41;;;;;;;;;;;9.70;99.90;;;;;;5076042;28;20695;-57
2021/11/14 03:43:08;;;;;;;;;;;9.60;99.90;;;;;;5094404;28;19928;-57
2021/11/14 03:45:34;;;;;;;;;;;9.70;99.90;;;;;;5094326;28;19927;-57
2021/11/14 03:48:00;;;;;;;;;;;9.60;99.90;;;;;;5093998;28;19920;-58
2021/11/14 03:50:26;;;;;;;;;;;9.60;99.90;;;;;;5093736;28;19920;-57
2021/11/14 03:52:52;;;;;;;;;;;9.60;99.90;;;;;;5093758;28;19927;-58
2021/11/14 03:55:17;;;;;;;;;;;9.60;99.90;;;;;;5093870;28;19924;-58
2021/11/14 03:57:43;;;;;;;;;;;9.60;99.90;;;;;;5093638;28;19987;-58
2021/11/14 04:00:11;;;;;;;;;;;9.60;99.90;;;;;;5093707;28;19921;-57
2021/11/14 04:02:37;;;;;;;;;;;9.60;99.90;;;;;;5093721;28;19920;-57
2021/11/14 04:05:03;;;;;;;;;;;9.60;99.90;;;;;;5093662;28;20389;-58
2021/11/14 04:07:29;;;;;;;;;;;9.60;99.90;;;;;;5093776;28;19920;-58
2021/11/14 04:09:54;;;;;;;;;;;9.60;99.90;;;;;;5093517;28;19931;-57
2021/11/14 04:12:20;;;;;;;;;;;9.60;99.90;;;;;;5093551;28;20352;-58
2021/11/14 04:14:45;;;;;;;;;;;9.50;99.90;;;;;;5093276;28;19966;-58
2021/11/14 04:17:11;;;;;;;;;;;9.60;99.90;;;;;;5093338;28;19920;-57
2021/11/14 04:19:36;;;;;;;;;;;9.50;99.90;;;;;;5093204;28;19966;-57
2021/11/14 04:22:02;;;;;;;;;;;9.50;99.90;;;;;;5093170;28;19927;-58
2021/11/14 04:24:27;;;;;;;;;;;9.60;99.90;;;;;;5093247;28;19927;-58
2021/11/14 04:26:53;;;;;;;;;;;9.60;99.90;;;;;;5093685;28;19924;-58
2021/11/14 04:29:19;;;;;;;;;;;9.50;99.90;;;;;;5093432;28;20419;-58
2021/11/14 04:31:44;;;;;;;;;;;9.50;99.90;;;;;;5074105;28;20365;-58
2021/11/14 04:34:10;;;;;;;;;;;9.50;99.90;;;;;;5092504;28;19927;-57
2021/11/14 04:36:35;;;;;;;;;;;9.50;99.90;;;;;;5093334;28;20269;-57
2021/11/14 04:39:01;;;;;;;;;;;9.50;99.90;;;;;;5092859;28;19920;-58
2021/11/14 04:41:26;;;;;;;;;;;9.50;99.90;;;;;;5093094;28;19924;-57
2021/11/14 04:43:53;;;;;;;;;;;9.50;99.90;;;;;;5093036;28;20384;-57
2021/11/14 04:46:18;;;;;;;;;;;9.50;99.90;;;;;;5074658;28;20428;-57
2021/11/14 04:48:44;;;;;;;;;;;9.50;99.90;;;;;;5092918;28;20046;-58
2021/11/14 04:51:09;;;;;;;;;;;9.50;99.90;;;;;;5092753;28;19927;-57
2021/11/14 04:53:35;;;;;;;;;;;9.50;99.90;;;;;;5092699;28;19924;-57
2021/11/14 04:56:00;;;;;;;;;;;9.50;99.90;;;;;;5092806;28;19924;-57
2021/11/14 04:58:26;;;;;;;;;;;9.50;99.90;;;;;;5074661;28;20062;-57
2021/11/14 05:00:52;;;;;;;;;;;9.50;99.90;;;;;;5092768;28;20406;-58
2021/11/14 05:03:18;;;;;;;;;;;9.50;99.90;;;;;;5092813;28;20015;-57
2021/11/14 05:05:43;;;;;;;;;;;9.40;99.90;;;;;;5092764;28;20471;-57
2021/11/14 05:08:10;;;;;;;;;;;9.40;99.90;;;;;;5092521;28;19998;-58
2021/11/14 05:10:36;;;;;;;;;;;9.40;99.90;;;;;;5074251;28;19924;-58
2021/11/14 05:13:02;;;;;;;;;;;9.40;99.90;;;;;;5092568;28;20011;-58
2021/11/14 05:15:28;;;;;;;;;;;9.40;99.90;;;;;;5092409;28;20014;-57
2021/11/14 05:17:53;;;;;;;;;;;9.40;99.90;;;;;;5092397;28;19942;-57
2021/11/14 05:20:19;;;;;;;;;;;9.30;99.90;;;;;;5092280;28;19979;-57
2021/11/14 05:22:45;;;;;;;;;;;9.40;99.90;;;;;;5092231;28;19927;-58
2021/11/14 05:25:10;;;;;;;;;;;9.30;99.90;;;;;;5092319;28;19926;-57
2021/11/14 05:27:36;;;;;;;;;;;9.30;99.90;;;;;;5092344;28;19920;-57
2021/11/14 05:30:03;;;;;;;;;;;9.30;99.90;;;;;;5092158;28;20040;-57
2021/11/14 05:32:29;;;;;;;;;;;9.30;99.90;;;;;;5092093;28;20020;-57
2021/11/14 05:34:55;;;;;;;;;;;9.30;99.90;;;;;;5091885;28;20107;-57
2021/11/14 05:37:20;;;;;;;;;;;9.30;99.90;;;;;;5092077;28;19921;-57
2021/11/14 05:39:46;;;;;;;;;;;9.30;99.90;;;;;;5092312;28;19920;-57
2021/11/14 05:42:11;;;;;;;;;;;9.30;99.90;;;;;;5092205;28;19966;-57
2021/11/14 05:44:37;;;;;;;;;;;9.20;99.90;;;;;;5094500;28;20293;-58
2021/11/14 05:47:02;;;;;;;;;;;9.30;99.90;;;;;;5096482;28;19931;-58
2021/11/14 05:49:28;;;;;;;;;;;9.20;99.90;;;;;;5096534;28;19982;-58
2021/11/14 05:51:54;;;;;;;;;;;9.20;99.90;;;;;;5096109;28;19927;-57
2021/11/14 05:54:19;;;;;;;;;;;9.20;99.90;;;;;;5096329;28;19920;-58
2021/11/14 05:56:45;;;;;;;;;;;9.30;99.90;;;;;;5096112;28;19924;-58
2021/11/14 05:59:20;;;;;;;;;;;9.20;99.90;;;;;;5095971;28;19927;-58
2021/11/14 06:07:03;;;;;;;;;;;9.20;99.90;;;;;;5053449;28;19921;-57
2021/11/14 06:09:29;;;;;;;;;;;9.20;99.90;;;;;;5053398;28;19921;-58
2021/11/14 06:11:54;;;;;;;;;;;9.20;99.90;;;;;;5053329;28;19967;-58
2021/11/14 06:14:20;;;;;;;;;;;9.20;99.90;;;;;;5053637;28;19932;-57
2021/11/14 06:16:45;;;;;;;;;;;9.20;99.90;;;;;;5053371;28;19925;-57
2021/11/14 06:19:11;;;;;;;;;;;9.20;99.90;;;;;;5036492;28;19921;-57
2021/11/14 06:21:36;;;;;;;;;;;9.20;99.90;;;;;;5053172;28;20262;-57
2021/11/14 06:24:02;;;;;;;;;;;9.10;99.90;;;;;;5053059;28;20383;-57
2021/11/14 06:26:28;;;;;;;;;;;9.10;99.90;;;;;;5053095;28;20363;-57
2021/11/14 06:28:53;;;;;;;;;;;9.10;99.90;;;;;;5036728;28;19928;-57
2021/11/14 06:31:19;;;;;;;;;;;9.10;99.90;;;;;;5052750;28;19925;-58
2021/11/14 06:33:45;;;;;;;;;;;9.10;99.90;;;;;;5053017;28;19920;-57
2021/11/14 06:36:10;;;;;;;;;;;9.10;99.90;;;;;;5052829;28;19932;-57
2021/11/14 06:38:36;;;;;;;;;;;9.10;99.90;;;;;;5052982;28;19921;-58
2021/11/14 06:41:01;;;;;;;;;;;9.00;99.90;;;;;;5052822;28;20303;-58
2021/11/14 06:43:28;;;;;;;;;;;9.10;99.90;;;;;;5062099;28;19931;-58
2021/11/14 06:45:54;;;;;;;;;;;9.10;99.90;;;;;;5095032;28;19920;-58
2021/11/14 06:48:19;;;;;;;;;;;9.10;99.90;;;;;;5095344;28;20011;-57
2021/11/14 06:50:45;;;;;;;;;;;9.00;99.90;;;;;;5095198;28;19973;-58
2021/11/14 06:53:11;;;;;;;;;;;9.00;99.90;;;;;;5095316;28;20091;-57
2021/11/14 06:55:36;;;;;;;;;;;9.00;99.90;;;;;;5094272;28;19977;-58
2021/11/14 06:58:02;;;;;;;;;;;9.00;99.90;;;;;;5076737;28;19943;-58
2021/11/14 07:00:28;;;;;;;;;;;9.00;99.90;;;;;;5094905;28;19977;-57
2021/11/14 07:02:53;;;;;;;;;;;9.00;99.90;;;;;;5095046;28;19920;-57
2021/11/14 07:05:19;;;;;;;;;;;9.00;99.90;;;;;;5094882;28;19928;-58
2021/11/14 07:07:45;;;;;;;;;;;9.00;99.90;;;;;;5094678;28;19946;-58
2021/11/14 07:10:11;;;;;;;;;;;9.00;99.90;;;;;;5094836;28;20007;-57
2021/11/14 07:12:37;;;;;;;;;;;9.10;99.90;;;;;;5094551;28;19924;-58
2021/11/14 07:15:05;;;;;;;;;;;9.00;99.90;;;;;;5094522;28;19942;-58
2021/11/14 07:17:30;;;;;;;;;;;9.10;99.90;;;;;;5094671;28;19950;-58
2021/11/14 07:19:58;;;;;;;;;;;9.10;99.90;;;;;;5076304;28;19920;-58
2021/11/14 07:22:24;;;;;;;;;;;9.00;99.90;;;;;;5094287;28;19982;-58
2021/11/14 07:24:50;;;;;;;;;;;9.00;99.90;;;;;;5094413;28;19966;-58
2021/11/14 07:27:15;;;;;;;;;;;9.10;99.90;;;;;;5094372;28;19956;-58
2021/11/14 07:29:41;;;;;;;;;;;9.10;99.90;;;;;;5094006;28;19920;-57
2021/11/14 07:32:07;;;;;;;;;;;9.10;99.90;;;;;;5094433;28;20025;-57
2021/11/14 07:34:33;;;;;;;;;;;9.10;99.90;;;;;;5094428;28;20293;-58
2021/11/14 07:36:58;;;;;;;;;;;9.10;99.90;;;;;;5094222;28;19924;-57
2021/11/14 07:39:24;;;;;;;;;;;9.10;99.90;;;;;;5094066;28;19920;-57
2021/11/14 07:41:49;;;;;;;;;;;9.10;99.90;;;;;;5094339;28;19931;-57
2021/11/14 07:44:15;;;;;;;;;;;9.10;99.90;;;;;;5093955;28;19920;-57
2021/11/14 07:46:40;;;;;;;;;;;9.10;99.90;;;;;;5094300;28;20391;-58
2021/11/14 07:49:06;;;;;;;;;;;9.10;99.90;;;;;;5094033;28;19919;-57
2021/11/14 07:51:32;;;;;;;;;;;9.10;99.90;;;;;;5094031;28;19999;-57
2021/11/14 07:54:03;;;;;;;;;;;9.10;99.90;;;;;;5093933;28;20301;-57
2021/11/14 07:56:29;;;;;;;;;;;9.10;99.90;;;;;;5093876;28;19928;-57
2021/11/14 07:58:54;;;;;;;;;;;9.10;99.90;;;;;;5093661;28;20370;-57
2021/11/14 08:01:20;;;;;;;;;;;9.10;99.90;;;;;;5093611;28;19946;-57
2021/11/14 08:03:45;;;;;;;;;;;9.10;99.90;;;;;;5093864;28;19924;-57
2021/11/14 08:06:11;;;;;;;;;;;9.10;99.90;;;;;;5093606;28;19920;-57
2021/11/14 08:08:37;;;;;;;;;;;9.10;99.90;;;;;;5092501;28;19924;-57
2021/11/14 08:11:02;;;;;;;;;;;9.10;99.90;;;;;;5093520;28;19920;-57
2021/11/14 08:13:28;;;;;;;;;;;9.10;99.90;;;;;;5093253;28;19920;-58
2021/11/14 08:15:53;;;;;;;;;;;9.10;99.90;;;;;;5093539;28;19946;-57
2021/11/14 08:18:19;;;;;;;;;;;9.10;99.90;;;;;;5075295;28;20280;-58
2021/11/14 08:20:46;;;;;;;;;;;9.10;99.90;;;;;;5058332;28;19920;-57
2021/11/14 08:23:14;;;;;;;;;;;9.10;99.90;;;;;;5093303;28;19920;-57
2021/11/14 08:25:40;;;;;;;;;;;9.10;99.90;;;;;;5093124;28;20412;-57
2021/11/14 08:28:05;;;;;;;;;;;9.10;99.90;;;;;;5075264;28;19920;-58
2021/11/14 08:30:31;;;;;;;;;;;9.10;99.90;;;;;;5093105;28;19931;-57
2021/11/14 08:32:57;;;;;;;;;;;9.20;99.90;;;;;;5093428;28;19924;-58
2021/11/14 08:35:23;;;;;;;;;;;9.20;99.90;;;;;;5093297;28;19935;-57
2021/11/14 08:37:50;;;;;;;;;;;9.20;99.90;;;;;;5093126;28;19927;-58
2021/11/14 08:40:16;;;;;;;;;;;9.20;99.90;;;;;;5093042;28;19927;-58
2021/11/14 08:42:42;;;;;;;;;;;9.20;99.90;;;;;;5092922;28;20736;-57
2021/11/14 08:45:08;;;;;;;;;;;9.20;99.90;;;;;;5092838;28;19924;-57
2021/11/14 08:47:34;;;;;;;;;;;9.20;99.90;;;;;;5075044;28;19927;-58
2021/11/14 08:50:00;;;;;;;;;;;9.20;99.90;;;;;;5092713;28;19920;-57
2021/11/14 08:52:26;;;;;;;;;;;9.30;99.90;;;;;;5092813;28;20035;-57
2021/11/14 08:54:52;;;;;;;;;;;9.30;99.90;;;;;;5092556;28;20366;-57
2021/11/14 08:57:18;;;;;;;;;;;9.30;99.90;;;;;;5093129;28;19924;-58
2021/11/14 08:59:45;;;;;;;;;;;9.30;99.90;;;;;;5092669;28;19927;-58
2021/11/14 09:02:10;;;;;;;;;;;9.30;99.90;;;;;;5074419;28;19920;-57
2021/11/14 09:04:36;;;;;;;;;;;9.30;99.90;;;;;;5092654;28;19926;-58
2021/11/14 09:07:01;;;;;;;;;;;9.30;99.90;;;;;;5092552;28;19965;-58
2021/11/14 09:09:27;;;;;;;;;;;9.30;99.90;;;;;;5092459;28;19924;-58
2021/11/14 09:11:53;;;;;;;;;;;9.30;99.90;;;;;;5092658;28;19920;-58
2021/11/14 09:14:19;;;;;;;;;;;9.30;99.90;;;;;;5092609;28;20331;-58
2021/11/14 09:16:45;;;;;;;;;;;9.40;99.90;;;;;;5092547;28;19931;-58
2021/11/14 09:19:10;;;;;;;;;;;9.40;99.90;;;;;;5091925;28;19920;-57
2021/11/14 09:21:36;;;;;;;;;;;9.40;99.90;;;;;;5092607;28;19924;-58
2021/11/14 09:24:02;;;;;;;;;;;9.40;99.90;;;;;;5092658;28;20381;-55
2021/11/14 09:26:27;;;;;;;;;;;9.50;99.90;;;;;;5092794;28;20010;-55
2021/11/14 09:28:53;;;;;;;;;;;9.50;99.90;;;;;;5074466;28;20009;-55
2021/11/14 09:31:19;;;;;;;;;;;9.50;99.90;;;;;;5092056;28;20405;-58
2021/11/14 09:33:45;;;;;;;;;;;9.50;99.90;;;;;;5092047;28;20421;-58
2021/11/14 09:36:10;;;;;;;;;;;9.50;99.90;;;;;;5092618;28;20279;-57
2021/11/14 09:38:36;;;;;;;;;;;9.50;99.90;;;;;;5092140;28;19924;-58
2021/11/14 09:41:03;;;;;;;;;;;9.50;99.90;;;;;;5092073;28;19924;-58
2021/11/14 09:43:29;;;;;;;;;;;9.50;99.90;;;;;;5092204;28;19974;-58
2021/11/14 09:45:55;;;;;;;;;;;9.60;99.90;;;;;;5092051;28;19924;-58
2021/11/14 09:48:22;;;;;;;;;;;9.60;99.90;;;;;;5092150;28;19927;-57
2021/11/14 09:50:51;;;;;;;;;;;9.60;99.90;;;;;;5092162;28;19924;-57
2021/11/14 09:53:16;;;;;;;;;;;9.60;99.90;;;;;;5091937;28;20437;-58
2021/11/14 09:55:42;;;;;;;;;;;9.60;99.90;;;;;;5091713;28;20015;-57
2021/11/14 09:58:08;;;;;;;;;;;9.60;99.90;;;;;;5092172;28;20289;-58
2021/11/14 10:00:35;;;;;;;;;;;9.60;99.90;;;;;;5092041;28;19927;-57
2021/11/14 10:03:00;;;;;;;;;;;9.60;99.90;;;;;;5092123;28;19920;-57
2021/11/14 10:05:26;;;;;;;;;;;9.60;99.90;;;;;;5091985;28;19926;-57
2021/11/14 10:07:56;;;;;;;;;;;9.60;99.90;;;;;;5073867;28;19920;-58
2021/11/14 10:10:23;;;;;;;;;;;9.60;99.90;;;;;;5092080;28;19920;-58
2021/11/14 10:12:49;;;;;;;;;;;9.70;99.90;;;;;;5091757;28;20270;-58
2021/11/14 10:15:18;;;;;;;;;;;9.70;99.90;;;;;;5073716;28;19931;-58
2021/11/14 10:17:45;;;;;;;;;;;9.70;99.90;;;;;;5091873;28;19973;-58
2021/11/14 10:20:14;;;;;;;;;;;9.70;99.90;;;;;;5091733;28;19926;-57
2021/11/14 10:22:41;;;;;;;;;;;9.70;99.90;;;;;;5091632;28;19923;-58
2021/11/14 10:25:07;;;;;;;;;;;9.70;99.90;;;;;;5092077;28;19920;-57
2021/11/14 10:27:33;;;;;;;;;;;9.70;99.90;;;;;;5091888;28;20284;-58
2021/11/14 10:29:59;;;;;;;;;;;9.70;99.90;;;;;;5091855;28;19931;-57
2021/11/14 10:32:26;;;;;;;;;;;9.70;99.90;;;;;;5095192;28;19924;-57
2021/11/14 10:34:56;;;;;;;;;;;9.70;99.90;;;;;;5095381;28;20362;-57
2021/11/14 10:37:22;;;;;;;;;;;9.70;99.90;;;;;;5077171;28;20379;-57
2021/11/14 10:39:52;;;;;;;;;;;9.70;99.90;;;;;;5095452;28;19967;-58
2021/11/14 10:42:20;;;;;;;;;;;9.70;99.90;;;;;;5096625;28;20016;-58
2021/11/14 10:44:51;;;;;;;;;;;9.70;99.90;;;;;;5097807;28;19920;-58
2021/11/14 10:47:22;;;;;;;;;;;9.70;99.90;;;;;;5111527;28;20347;-57
2021/11/14 10:49:56;;;;;;;;;;;9.80;99.90;;;;;;5113962;28;19967;-57
2021/11/14 10:52:22;;;;;;;;;;;9.80;99.90;;;;;;5112415;28;20400;-58
2021/11/14 10:55:08;;;;;;;;;;;9.70;99.90;;;;;;5115517;28;19924;-56
2021/11/14 11:00:10;;;;;;;;;;;9.70;99.90;;;;;;6023001;22;19952;-55
2021/11/14 11:02:50;;;;;;;33.58;20.38;;;10.10;99.90;;;;;;5311158;22;20153;-48
2021/11/14 11:05:19;;;;;;;30.13;19.00;;;9.80;99.90;;;;;;5142260;27;20050;-49
2021/11/14 11:08:00;;;;;;;;;;;9.80;99.90;;;;;;5140215;27;20035;-51
2021/11/14 11:10:56;;;;;;;33.78;19.85;;;9.80;99.90;;;;;;5128462;27;19915;-51
2021/11/14 11:14:56;;;;;;;34.30;19.65;;;9.80;99.90;;;;;;4985542;27;20404;-53
2021/11/14 11:17:22;;;;;;;29.80;19.05;;;9.90;99.90;;;;;;4993598;28;20034;-56
2021/11/14 11:19:47;;;;;;;28.83;18.20;;;9.90;99.90;;;;;;4990715;28;20084;-55
2021/11/14 11:22:14;;;;;;;29.58;18.20;;;9.90;99.90;;;;;;4993178;28;20046;-55
2021/11/14 11:24:51;;;;;;;29.42;18.42;;;9.90;99.90;;;;;;5009921;28;20034;-55
2021/11/14 11:27:18;;;;;;;28.40;18.45;;;9.90;99.90;;;;;;5009729;28;20045;-55
2021/11/14 11:29:44;;;;;;;26.90;17.95;;;9.90;99.90;;;;;;5009571;28;20467;-55
2021/11/14 11:32:13;;;;;;;29.73;17.58;;;9.90;99.90;;;;;;5009946;28;20092;-54
2021/11/14 11:34:41;;;;;;;31.30;18.45;;;9.90;99.90;;;;;;5009825;28;20041;-55
2021/11/14 11:37:07;;;;;;;32.27;18.30;;;10.00;99.90;;;;;;5009784;28;20045;-54
2021/11/14 11:39:33;;;;;;;28.42;18.35;;;9.90;99.90;;;;;;5009628;28;20041;-52
2021/11/14 11:42:00;;;;;;;29.60;19.15;;;9.90;99.90;;;;;;5005820;28;20057;-55
2021/11/14 11:44:27;;;;;;;31.77;18.73;;;9.90;99.90;;;;;;5009437;28;20399;-55
2021/11/14 11:47:00;;;;;;;33.55;19.52;;;9.90;99.90;;;;;;5009685;28;20073;-54
2021/11/14 11:49:27;;;;;;;30.00;18.25;;;9.80;99.90;;;;;;5009349;28;20042;-54
2021/11/14 11:51:56;;;;;;;34.70;18.70;;;9.90;99.90;;;;;;5009499;28;20117;-55
2021/11/14 11:54:25;;;;;;;29.63;18.08;;;9.90;99.90;;;;;;5009291;28;20125;-55
2021/11/14 11:57:09;;;;;;;33.20;19.75;;;10.00;99.90;;;;;;5009049;28;20061;-54
2021/11/14 11:59:42;;;;;;;36.80;19.65;;;9.90;99.90;;;;;;5009383;28;20034;-54
2021/11/14 12:02:21;;;;;;;34.70;19.23;;;9.90;99.90;;;;;;5009384;28;20044;-54
2021/11/14 12:04:52;;;;;;;34.42;19.08;;;9.90;99.90;;;;;;5009185;28;20073;-55
2021/11/14 12:07:20;;;;;;;32.47;19.30;;;9.90;99.90;;;;;;5008900;28;20034;-54
2021/11/14 12:10:08;;;;;;;31.90;19.75;;;9.90;99.90;;;;;;5009256;28;20424;-53
2021/11/14 12:12:36;;;;;;;33.58;19.55;;;9.90;99.90;;;;;;4986933;28;20147;-54
2021/11/14 12:15:16;;;;;;;34.58;20.05;;;9.90;99.90;;;;;;4987111;28;20054;-54
2021/11/14 12:17:49;;;;;;;28.52;18.00;;;9.90;99.90;;;;;;4987326;28;20089;-55
2021/11/14 12:20:16;;;;;;;30.35;18.35;;;9.90;99.90;;;;;;4987270;28;20078;-55
2021/11/14 12:22:52;;;;;;;33.28;20.10;;;9.90;99.90;;;;;;4986987;28;20046;-55
2021/11/14 12:25:34;;;;;;;34.78;19.30;;;9.90;99.90;;;;;;4978668;28;20043;-54
2021/11/14 12:28:02;;;;;;;39.58;20.08;;;9.90;99.90;;;;;;4957954;28;20051;-54
2021/11/14 12:30:29;;;;;;;32.47;18.83;;;9.90;99.90;;;;;;4973926;28;20051;-55
2021/11/14 12:32:56;;;;;;;34.58;20.08;;;9.90;99.90;;;;;;4973465;28;20417;-54
2021/11/14 12:35:35;;;;;;;31.38;20.27;;;9.90;99.90;;;;;;4973680;28;20051;-54
2021/11/14 12:38:06;;;;;;;35.22;20.25;;;9.90;99.90;;;;;;4973712;28;20047;-54
2021/11/14 12:40:47;;;;;;;37.88;21.02;;;10.00;99.90;;;;;;4973467;28;20436;-54
2021/11/14 12:43:21;;;;;;;34.83;19.80;;;10.00;99.90;;;;;;4973850;28;20552;-53
2021/11/14 12:45:49;;;;;;;38.83;21.88;;;9.90;99.90;;;;;;4973502;28;20097;-55
2021/11/14 12:48:16;;;;;;;37.10;20.70;;;9.90;99.90;;;;;;4973445;28;20156;-54
2021/11/14 12:50:43;;;;;;;35.72;21.15;;;10.00;99.90;;;;;;4993434;28;20500;-54
2021/11/14 12:53:12;;;;;;;34.33;19.92;;;9.90;99.90;;;;;;4994757;28;20046;-54
2021/11/14 12:55:41;;;;;;;33.63;19.95;;;10.00;99.90;;;;;;4994309;28;20480;-55
2021/11/14 12:58:18;;;;;;;31.48;19.95;;;10.00;99.90;;;;;;4995344;28;20034;-53
2021/11/14 13:00:47;;;;;;;35.53;20.35;;;10.00;99.90;;;;;;4995410;28;20042;-54
2021/11/14 13:03:26;;;;;;;33.28;19.77;;;10.00;99.90;;;;;;4994891;28;20042;-55
2021/11/14 13:05:54;;;;;;;31.30;18.80;;;9.90;99.90;;;;;;4995004;28;20442;-55
2021/11/14 13:08:34;;;;;;;34.53;19.25;;;10.00;99.90;;;;;;4995134;28;20046;-54
2021/11/14 13:11:03;;;;;;;35.38;19.55;;;10.00;99.90;;;;;;4994940;28;20038;-54
2021/11/14 13:13:40;;;;;;;35.08;19.38;;;9.90;99.90;;;;;;4994739;28;20062;-53
2021/11/14 13:16:10;;;;;;;38.22;20.80;;;10.00;99.90;;;;;;4994545;28;20555;-53
2021/11/14 13:18:37;;;;;;;32.88;19.27;;;10.00;99.90;;;;;;4994960;28;20038;-55
2021/11/14 13:21:24;;;;;;;34.85;20.05;;;10.00;99.90;;;;;;4994600;28;20084;-54
2021/11/14 13:23:54;;;;;;;37.95;20.30;;;10.00;99.90;;;;;;4993797;28;20074;-53
2021/11/14 13:26:20;;;;;;;39.38;21.13;;;10.00;99.90;;;;;;4994618;28;20038;-55
2021/11/14 13:28:45;;;;;;;34.78;20.20;;;10.00;99.90;;;;;;4994904;28;20035;-53
2021/11/14 13:31:19;;;;;;;37.15;19.58;;;10.00;99.90;;;;;;4994651;28;20365;-55
2021/11/14 13:34:07;;;;;;;32.40;18.75;;;10.00;99.90;;;;;;4994169;28;20121;-54
2021/11/14 13:36:48;;;;;;;35.35;19.02;;;10.00;99.90;;;;;;4993270;28;20042;-54
2021/11/14 13:39:14;;;;;;;36.38;20.17;;;10.00;99.90;;;;;;4993201;28;20484;-53
2021/11/14 13:41:40;;;;;;;35.47;18.88;;;10.00;99.90;;;;;;4993597;28;20038;-53
2021/11/14 13:44:06;;;;;;;34.55;18.15;;;10.00;99.90;;;;;;4994397;28;20864;-55
2021/11/14 13:46:32;;;;;;;31.88;17.83;;;9.90;99.90;;;;;;4993724;28;20057;-54
2021/11/14 13:49:00;;;;;;;33.13;18.80;;;10.00;99.90;;;;;;4993404;28;20121;-55
2021/11/14 13:51:28;;;;;;;32.13;18.13;;;10.00;99.90;;;;;;4994408;28;20045;-54
2021/11/14 13:53:55;;;;;;;31.20;17.23;;;10.00;99.90;;;;;;4994305;28;20050;-54
2021/11/14 13:56:21;;;;;;;28.42;17.02;;;10.00;99.90;;;;;;4993968;28;20285;-55
2021/11/14 13:58:51;;;;;;;29.48;18.38;;;10.00;99.90;;;;;;4993946;28;20129;-54
2021/11/14 14:01:21;;;;;;;30.00;18.98;;;10.00;99.90;;;;;;4993023;28;20042;-54
2021/11/14 14:03:49;;;;;;;28.98;17.08;;;10.00;99.90;;;;;;4993994;28;20097;-54
2021/11/14 14:06:18;;;;;;;28.25;18.27;;;10.00;99.90;;;;;;4991875;28;20490;-54
2021/11/14 14:08:44;;;;;;;25.58;17.65;;;10.00;99.90;;;;;;4994011;28;20065;-53